Time;durP1;ratioP1;P1;durP2;ratioP2;P2;SDS_P1;SDS_P2;PMS_P1;PMS_P2;Temp;Humidity;BMP_temperature;BMP_pressure;BME280_temperature;BME280_humidity;BME280_pressure;Samples;Min_cycle;Max_cycle;Signal;HPM_P1;HPM_P2
2022/09/24 00:01:39;;;;;;;10.45;4.43;;;;;;;-145.01;100.00;64805.59;5057883;28;20074;-54
2022/09/24 00:04:06;;;;;;;7.50;4.70;;;;;;;-145.01;100.00;64805.59;5054896;28;20569;-54
2022/09/24 00:06:37;;;;;;;8.88;5.00;;;;;;;-145.01;100.00;64805.59;5055522;28;20347;-55
2022/09/24 00:09:03;;;;;;;7.20;4.68;;;;;;;-145.01;100.00;64805.59;5052646;28;20025;-55
2022/09/24 00:11:28;;;;;;;8.00;4.57;;;;;;;-145.01;100.00;64805.59;5058104;28;20043;-56
2022/09/24 00:13:55;;;;;;;9.82;4.85;;;;;;;-145.01;100.00;64805.59;5086631;28;20129;-55
2022/09/24 00:16:21;;;;;;;9.18;4.97;;;;;;;-145.01;100.00;64805.59;5054135;28;20024;-55
2022/09/24 00:18:47;;;;;;;11.50;5.80;;;;;;;-145.01;100.00;64805.59;5055914;28;20667;-55
2022/09/24 00:21:25;;;;;;;9.48;5.00;;;;;;;-145.01;100.00;64805.59;5057767;28;20041;-56
2022/09/24 00:23:52;;;;;;;7.72;5.05;;;;;;;-145.01;100.00;64805.59;5053011;28;20037;-55
2022/09/24 00:29:02;;;;;;;7.22;4.82;;;;;;;-145.01;100.00;64805.59;5051567;28;20040;-54
2022/09/24 00:31:27;;;;;;;10.65;5.85;;;;;;;-145.01;100.00;64805.59;5050660;28;20028;-55
2022/09/24 00:33:53;;;;;;;7.63;4.63;;;;;;;-145.01;100.00;64805.59;5049980;28;20029;-54
2022/09/24 00:36:19;;;;;;;9.98;4.53;;;;;;;-145.01;100.00;64805.59;5050964;28;20029;-54
2022/09/24 00:38:47;;;;;;;8.05;5.20;;;;;;;-145.01;100.00;64805.59;5057169;28;20331;-55
2022/09/24 00:41:13;;;;;;;12.70;5.38;;;;;;;-145.01;100.00;64805.59;5057414;28;20231;-55
2022/09/24 00:43:38;;;;;;;8.75;4.47;;;;;;;-145.01;100.00;64805.59;5058544;28;20398;-55
2022/09/24 00:46:17;;;;;;;11.95;4.68;;;;;;;-145.01;100.00;64805.59;5054567;28;20044;-55
2022/09/24 00:48:42;;;;;;;10.40;5.00;;;;;;;-145.01;100.00;64805.59;5056275;28;20162;-54
2022/09/24 00:51:09;;;;;;;9.60;4.93;;;;;;;-145.01;100.00;64805.59;5050530;28;20021;-55
2022/09/24 00:53:34;;;;;;;8.82;5.03;;;;;;;-145.01;100.00;64805.59;5050626;28;20225;-54
2022/09/24 00:56:00;;;;;;;19.02;5.32;;;;;;;-145.01;100.00;64805.59;5052866;28;20059;-55
2022/09/24 00:58:26;;;;;;;6.57;4.60;;;;;;;-145.01;100.00;64805.59;5057240;28;20528;-55
2022/09/24 01:00:57;;;;;;;8.45;5.22;;;;;;;-145.01;100.00;64805.59;5054806;28;20068;-53
2022/09/24 01:03:23;;;;;;;11.63;5.00;;;;;;;-145.01;100.00;64805.59;5046535;28;20406;-55
2022/09/24 01:05:48;;;;;;;8.68;5.25;;;;;;;-145.01;100.00;64805.59;5052844;28;20137;-54
2022/09/24 01:08:15;;;;;;;9.52;5.45;;;;;;;-145.01;100.00;64805.59;5050446;28;20024;-53
2022/09/24 01:10:46;;;;;;;7.35;4.85;;;;;;;-145.01;100.00;64805.59;5053511;28;20029;-53
2022/09/24 01:13:44;;;;;;;12.85;5.55;;;;;;;-145.01;100.00;64805.59;5054778;28;20514;-54
2022/09/24 01:16:41;;;;;;;9.80;5.10;;;;;;;-145.01;100.00;64805.59;5035515;28;20127;-54
2022/09/24 01:19:44;;;;;;;9.75;5.68;;;;;;;-145.01;100.00;64805.59;5046799;28;20072;-55
2022/09/24 01:22:26;;;;;;;8.82;4.95;;;;;;;-145.01;100.00;64805.59;5050149;28;20437;-54
2022/09/24 01:24:56;;;;;;;10.88;4.70;;;;;;;-145.01;100.00;64805.59;5049169;28;20029;-56
2022/09/24 01:27:26;;;;;;;;;;;;;;;-145.01;100.00;64805.59;5049454;28;20104;-56
2022/09/24 01:30:01;;;;;;;8.63;5.07;;;;;;;-145.01;100.00;64805.59;5087166;28;20492;-56
2022/09/24 01:32:33;;;;;;;8.90;5.80;;;;;;;-145.01;100.00;64805.59;5050978;28;20060;-56
2022/09/24 01:35:01;;;;;;;11.40;6.50;;;;;;;-145.01;100.00;64805.59;5048649;28;20064;-55
2022/09/24 01:37:27;;;;;;;9.05;5.90;;;;;;;-145.01;100.00;64805.59;5052783;28;20324;-55
2022/09/24 01:39:53;;;;;;;10.93;5.80;;;;;;;-145.01;100.00;64805.59;5039061;28;20037;-54
2022/09/24 01:42:19;;;;;;;8.75;5.88;;;;;;;-145.01;100.00;64805.59;5048478;28;20033;-54
2022/09/24 01:44:45;;;;;;;11.20;6.22;;;;;;;-145.01;100.00;64805.59;5037174;28;20021;-54
2022/09/24 01:47:15;;;;;;;11.93;6.53;;;;;;;-145.01;100.00;64805.59;5088956;28;20503;-54
2022/09/24 01:49:40;;;;;;;9.73;5.72;;;;;;;-145.01;100.00;64805.59;5034931;28;20089;-55
2022/09/24 01:52:07;;;;;;;16.30;5.75;;;;;;;-145.01;100.00;64805.59;5051710;28;20024;-54
2022/09/24 01:54:38;;;;;;;12.70;5.93;;;;;;;-145.01;100.00;64805.59;5050334;28;20510;-53
2022/09/24 01:57:16;;;;;;;11.38;5.97;;;;;;;-145.01;100.00;64805.59;5031777;28;20040;-54
2022/09/24 02:00:04;;;;;;;10.77;4.85;;;;;;;-145.01;100.00;64805.59;5051510;28;20040;-54
2022/09/24 02:02:52;;;;;;;9.63;5.38;;;;;;;-145.01;100.00;64805.59;5048549;28;20025;-54
2022/09/24 02:05:24;;;;;;;9.40;5.38;;;;;;;-145.01;100.00;64805.59;5048092;28;20053;-54
2022/09/24 02:07:57;;;;;;;11.93;5.80;;;;;;;-145.01;100.00;64805.59;5055921;28;20028;-54
2022/09/24 02:10:23;;;;;;;13.93;6.03;;;;;;;-145.01;100.00;64805.59;5036437;28;20064;-55
2022/09/24 02:12:52;;;;;;;11.75;6.15;;;;;;;-145.01;100.00;64805.59;5049199;28;20033;-56
2022/09/24 02:15:20;;;;;;;13.57;6.13;;;;;;;-145.01;100.00;64805.59;5055354;28;20569;-56
2022/09/24 02:17:47;;;;;;;11.85;6.80;;;;;;;-145.01;100.00;64805.59;5064899;28;20021;-54
2022/09/24 02:20:19;;;;;;;9.57;6.25;;;;;;;-145.01;100.00;64805.59;5057632;28;20081;-55
2022/09/24 02:22:45;;;;;;;11.02;6.70;;;;;;;-145.01;100.00;64805.59;5052192;28;20497;-55
2022/09/24 02:25:13;;;;;;;15.23;6.10;;;;;;;-145.01;100.00;64805.59;5054327;28;20523;-55
2022/09/24 02:27:39;;;;;;;9.43;6.97;;;;;;;-145.01;100.00;64805.59;5058047;28;20033;-55
2022/09/24 02:30:05;;;;;;;12.98;7.22;;;;;;;-145.01;100.00;64805.59;5059500;28;20013;-55
2022/09/24 02:32:31;;;;;;;11.35;6.95;;;;;;;-145.01;100.00;64805.59;5031334;28;20260;-54
2022/09/24 02:35:00;;;;;;;9.98;6.40;;;;;;;-145.01;100.00;64805.59;5032557;28;20021;-54
2022/09/24 02:37:25;;;;;;;9.00;6.20;;;;;;;-145.01;100.00;64805.59;5064070;28;20410;-54
2022/09/24 02:39:51;;;;;;;10.35;6.40;;;;;;;-145.01;100.00;64805.59;5055074;28;20044;-55
2022/09/24 02:42:16;;;;;;;11.98;6.47;;;;;;;-145.01;100.00;64805.59;5049258;28;20517;-54
2022/09/24 02:44:42;;;;;;;10.32;6.13;;;;;;;-145.01;100.00;64805.59;5058603;28;20032;-53
2022/09/24 02:47:07;;;;;;;11.18;6.20;;;;;;;-145.01;100.00;64805.59;5054412;28;20031;-53
2022/09/24 02:49:33;;;;;;;11.68;6.57;;;;;;;-145.01;100.00;64805.59;5053800;28;20040;-52
2022/09/24 02:51:58;;;;;;;14.20;6.30;;;;;;;-145.01;100.00;64805.59;5053969;28;20032;-54
2022/09/24 02:54:24;;;;;;;14.75;7.18;;;;;;;-145.01;100.00;64805.59;5048918;28;20031;-55
2022/09/24 02:56:49;;;;;;;13.82;6.28;;;;;;;-145.01;100.00;64805.59;5054876;28;20433;-55
2022/09/24 02:59:15;;;;;;;15.65;6.60;;;;;;;-145.01;100.00;64805.59;5048549;28;20064;-55
2022/09/24 03:01:40;;;;;;;12.85;7.05;;;;;;;-145.01;100.00;64805.59;5058827;28;20069;-52
2022/09/24 03:04:06;;;;;;;11.13;6.15;;;;;;;-145.01;100.00;64805.59;5055700;28;20091;-55
2022/09/24 03:06:31;;;;;;;12.70;6.70;;;;;;;-145.01;100.00;64805.59;5048447;28;20024;-54
2022/09/24 03:08:57;;;;;;;10.07;7.00;;;;;;;-145.01;100.00;64805.59;5048408;28;20047;-54
2022/09/24 03:11:22;;;;;;;13.10;6.82;;;;;;;-145.01;100.00;64805.59;5055785;28;20353;-53
2022/09/24 03:13:48;;;;;;;12.43;6.88;;;;;;;-145.01;100.00;64805.59;5052035;28;20035;-51
2022/09/24 03:16:13;;;;;;;9.23;6.05;;;;;;;-145.01;100.00;64805.59;5051024;28;20077;-54
2022/09/24 03:18:39;;;;;;;12.60;7.22;;;;;;;-145.01;100.00;64805.59;5051083;28;20025;-54
2022/09/24 03:21:09;;;;;;;11.02;7.00;;;;;;;-145.01;100.00;64805.59;5030936;28;20464;-54
2022/09/24 03:23:35;;;;;;;21.73;7.15;;;;;;;-145.01;100.00;64805.59;5053937;28;20024;-52
2022/09/24 03:26:00;;;;;;;11.65;7.25;;;;;;;-145.01;100.00;64805.59;5053636;28;20021;-54
2022/09/24 03:28:26;;;;;;;14.02;6.53;;;;;;;-145.01;100.00;64805.59;5048343;28;20025;-54
2022/09/24 03:31:00;;;;;;;13.50;7.07;;;;;;;-145.01;100.00;64805.59;5053071;28;20032;-55
2022/09/24 03:33:30;;;;;;;12.10;6.50;;;;;;;-145.01;100.00;64805.59;5053947;28;20070;-55
2022/09/24 03:35:58;;;;;;;17.73;6.97;;;;;;;-145.01;100.00;64805.59;5054970;28;20086;-54
2022/09/24 03:38:25;;;;;;;10.57;7.10;;;;;;;-145.01;100.00;64805.59;5050445;28;20375;-55
2022/09/24 03:40:51;;;;;;;12.05;6.70;;;;;;;-145.01;100.00;64805.59;5051352;28;20260;-54
2022/09/24 03:43:16;;;;;;;12.55;6.38;;;;;;;-145.01;100.00;64805.59;5056101;28;20036;-55
2022/09/24 03:45:42;;;;;;;13.57;7.00;;;;;;;-145.01;100.00;64805.59;5052207;28;20037;-54
2022/09/24 03:48:07;;;;;;;11.15;7.00;;;;;;;-145.01;100.00;64805.59;5063089;28;20032;-55
2022/09/24 03:50:36;;;;;;;13.38;7.15;;;;;;;-145.01;100.00;64805.59;5055836;28;20078;-53
2022/09/24 03:53:01;;;;;;;11.93;7.47;;;;;;;-145.01;100.00;64805.59;5058722;28;20032;-54
2022/09/24 03:55:26;;;;;;;16.33;7.88;;;;;;;-145.01;100.00;64805.59;5058913;28;20418;-54
2022/09/24 03:57:52;;;;;;;13.60;7.80;;;;;;;-145.01;100.00;64805.59;5051934;28;20324;-54
2022/09/24 04:00:17;;;;;;;13.98;7.57;;;;;;;-145.01;100.00;64805.59;5052390;28;20048;-52
2022/09/24 04:02:43;;;;;;;12.18;7.38;;;;;;;-145.01;100.00;64805.59;5051628;28;20490;-53
2022/09/24 04:05:09;;;;;;;11.85;7.25;;;;;;;-145.01;100.00;64805.59;5051816;28;20029;-56
2022/09/24 04:07:34;;;;;;;14.70;8.13;;;;;;;-145.01;100.00;64805.59;5051736;28;20487;-55
2022/09/24 04:09:59;;;;;;;8.90;6.60;;;;;;;-145.01;100.00;64805.59;5051622;28;20454;-56
2022/09/24 04:12:25;;;;;;;12.80;7.93;;;;;;;-145.01;100.00;64805.59;5059960;28;20025;-54
2022/09/24 04:14:50;;;;;;;10.32;6.50;;;;;;;-145.01;100.00;64805.59;5055574;28;20020;-55
2022/09/24 04:17:16;;;;;;;11.10;7.35;;;;;;;-145.01;100.00;64805.59;5059074;28;20098;-55
2022/09/24 04:19:42;;;;;;;10.30;6.80;;;;;;;-145.01;100.00;64805.59;5052808;28;20499;-55
2022/09/24 04:22:08;;;;;;;11.95;6.72;;;;;;;-145.01;100.00;64805.59;5056756;28;20059;-54
2022/09/24 04:24:33;;;;;;;12.32;6.78;;;;;;;-145.01;100.00;64805.59;5059559;28;20017;-54
2022/09/24 04:26:58;;;;;;;20.70;7.75;;;;;;;-145.01;100.00;64805.59;5055295;28;20028;-55
2022/09/24 04:29:24;;;;;;;12.65;6.53;;;;;;;-145.01;100.00;64805.59;5058139;28;20036;-52
2022/09/24 04:31:50;;;;;;;12.90;7.30;;;;;;;-145.01;100.00;64805.59;5055679;28;20033;-57
2022/09/24 04:34:16;;;;;;;10.88;7.35;;;;;;;-145.01;100.00;64805.59;5061720;28;20025;-54
2022/09/24 04:36:44;;;;;;;13.75;7.28;;;;;;;-145.01;100.00;64805.59;5050665;28;20017;-54
2022/09/24 04:39:10;;;;;;;9.77;5.95;;;;;;;-145.01;100.00;64805.59;5052023;28;20028;-54
2022/09/24 04:41:36;;;;;;;13.57;6.47;;;;;;;-145.01;100.00;64805.59;5055058;28;20033;-54
2022/09/24 04:44:04;;;;;;;9.98;6.88;;;;;;;-145.01;100.00;64805.59;5057240;28;20029;-54
2022/09/24 04:46:32;;;;;;;16.38;7.18;;;;;;;-145.01;100.00;64805.59;5089142;28;20113;-54
2022/09/24 04:48:57;;;;;;;13.27;7.93;;;;;;;-145.01;100.00;64805.59;5055185;28;20083;-54
2022/09/24 04:51:23;;;;;;;12.27;7.07;;;;;;;-145.01;100.00;64805.59;5051711;28;20491;-55
2022/09/24 04:53:49;;;;;;;13.35;7.25;;;;;;;-145.01;100.00;64805.59;5051489;28;20095;-54
2022/09/24 04:56:14;;;;;;;12.25;7.00;;;;;;;-145.01;100.00;64805.59;5056212;28;20033;-53
2022/09/24 04:58:41;;;;;;;13.70;6.85;;;;;;;-145.01;100.00;64805.59;5051976;28;20099;-55
2022/09/24 05:01:07;;;;;;;10.95;7.32;;;;;;;-145.01;100.00;64805.59;5055380;28;20025;-54
2022/09/24 05:03:32;;;;;;;11.45;7.38;;;;;;;-145.01;100.00;64805.59;5050372;28;20025;-55
2022/09/24 05:05:58;;;;;;;10.05;7.13;;;;;;;-145.01;100.00;64805.59;5050854;28;20034;-55
2022/09/24 05:08:23;;;;;;;11.98;7.53;;;;;;;-145.01;100.00;64805.59;5059420;28;20031;-54
2022/09/24 05:10:49;;;;;;;11.48;7.40;;;;;;;-145.01;100.00;64805.59;5051555;28;20379;-54
2022/09/24 05:13:24;;;;;;;10.13;7.75;;;;;;;-145.01;100.00;64805.59;5058436;28;20082;-55
2022/09/24 05:15:49;;;;;;;12.07;7.32;;;;;;;-145.01;100.00;64805.59;5055659;28;20020;-55
2022/09/24 05:18:14;;;;;;;13.38;7.13;;;;;;;-145.01;100.00;64805.59;5063227;28;20141;-54
2022/09/24 05:20:40;;;;;;;16.52;6.90;;;;;;;-145.01;100.00;64805.59;5051274;28;20029;-53
2022/09/24 05:23:06;;;;;;;15.98;7.47;;;;;;;-145.01;100.00;64805.59;5056592;28;20083;-55
2022/09/24 05:25:31;;;;;;;13.73;7.82;;;;;;;-145.01;100.00;64805.59;5055879;28;20439;-54
2022/09/24 05:27:57;;;;;;;15.15;7.85;;;;;;;-145.01;100.00;64805.59;5055196;28;20240;-55
2022/09/24 05:30:23;;;;;;;13.95;8.60;;;;;;;-145.01;100.00;64805.59;5053636;28;20028;-55
2022/09/24 05:32:50;;;;;;;11.45;7.72;;;;;;;-145.01;100.00;64805.59;5052222;28;20112;-54
2022/09/24 05:35:17;;;;;;;11.93;8.57;;;;;;;-145.01;100.00;64805.59;5055544;28;20666;-55
2022/09/24 05:37:43;;;;;;;18.60;8.95;;;;;;;-145.01;100.00;64805.59;5056810;28;20017;-55
2022/09/24 05:43:01;;;;;;;18.13;9.02;;;;;;;-145.01;100.00;64805.59;5050363;28;20040;-55
2022/09/24 05:45:28;;;;;;;12.75;8.10;;;;;;;-145.01;100.00;64805.59;5050323;28;20152;-55
2022/09/24 05:47:53;;;;;;;12.30;8.30;;;;;;;-145.01;100.00;64805.59;5050689;28;20032;-55
2022/09/24 05:50:19;;;;;;;21.60;14.05;;;;;;;-145.01;100.00;64805.59;5050447;28;20415;-54
2022/09/24 05:52:45;;;;;;;20.95;14.48;;;;;;;-145.01;100.00;64805.59;5049996;28;20472;-54
2022/09/24 05:55:10;;;;;;;12.43;8.15;;;;;;;-145.01;100.00;64805.59;5054619;28;20024;-55
2022/09/24 05:57:36;;;;;;;11.88;7.55;;;;;;;-145.01;100.00;64805.59;5055109;28;20464;-55
2022/09/24 06:00:03;;;;;;;9.85;7.20;;;;;;;-145.01;100.00;64805.59;5053256;28;20032;-54
2022/09/24 06:02:28;;;;;;;11.73;6.70;;;;;;;-145.01;100.00;64805.59;5057006;28;20024;-54
2022/09/24 06:04:54;;;;;;;13.55;6.90;;;;;;;-145.01;100.00;64805.59;5052865;28;20091;-55
2022/09/24 06:07:20;;;;;;;9.82;6.45;;;;;;;-145.01;100.00;64805.59;5049756;28;20025;-54
2022/09/24 06:09:46;;;;;;;13.32;7.32;;;;;;;-145.01;100.00;64805.59;5053585;28;20024;-55
2022/09/24 06:12:12;;;;;;;22.02;7.28;;;;;;;-145.01;100.00;64805.59;5055127;28;20036;-55
2022/09/24 06:14:37;;;;;;;13.48;6.85;;;;;;;-145.01;100.00;64805.59;5044129;28;20032;-55
2022/09/24 06:17:03;;;;;;;13.60;8.40;;;;;;;-145.01;100.00;64805.59;5056542;28;20020;-55
2022/09/24 06:19:28;;;;;;;9.15;6.78;;;;;;;-145.01;100.00;64805.59;5055347;28;20048;-55
2022/09/24 06:21:54;;;;;;;12.32;7.20;;;;;;;-145.01;100.00;64805.59;5048296;28;20080;-55
2022/09/24 06:24:19;;;;;;;23.50;12.10;;;;;;;-145.01;100.00;64805.59;5056555;28;20458;-52
2022/09/24 06:26:45;;;;;;;25.33;15.57;;;;;;;-145.01;100.00;64805.59;5031711;28;20041;-54
2022/09/24 06:29:10;;;;;;;20.05;12.02;;;;;;;-145.01;100.00;64805.59;5057986;28;20025;-55
2022/09/24 06:31:36;;;;;;;23.13;10.88;;;;;;;-145.01;100.00;64805.59;5053068;28;21965;-56
2022/09/24 06:34:01;;;;;;;16.48;11.23;;;;;;;-145.01;100.00;64805.59;5056005;28;20021;-54
2022/09/24 06:36:27;;;;;;;23.55;14.07;;;;;;;-145.01;100.00;64805.59;5049472;28;20035;-55
2022/09/24 06:38:52;;;;;;;20.60;12.52;;;;;;;-145.01;100.00;64805.59;5048128;28;20028;-54
2022/09/24 06:41:18;;;;;;;16.52;10.05;;;;;;;-145.01;100.00;64805.59;5053525;28;20083;-55
2022/09/24 06:43:43;;;;;;;22.42;15.65;;;;;;;-145.01;100.00;64805.59;5050849;28;20036;-55
2022/09/24 06:46:09;;;;;;;26.13;16.73;;;;;;;-145.01;100.00;64805.59;5054218;28;20053;-55
2022/09/24 06:48:36;;;;;;;23.05;13.35;;;;;;;-145.01;100.00;64805.59;5050846;28;20029;-55
2022/09/24 06:51:03;;;;;;;50.40;29.35;;;;;;;-145.01;100.00;64805.59;5048823;28;20037;-54
2022/09/24 06:53:28;;;;;;;14.23;9.48;;;;;;;-145.01;100.00;64805.59;5053640;28;20024;-54
2022/09/24 06:55:56;;;;;;;18.30;10.02;;;;;;;-145.01;100.00;64805.59;5052762;28;20100;-54
2022/09/24 06:58:22;;;;;;;19.75;10.45;;;;;;;-145.01;100.00;64805.59;5055946;28;20025;-54
2022/09/24 07:00:59;;;;;;;15.73;10.23;;;;;;;-145.01;100.00;64805.59;5052010;28;20482;-52
2022/09/24 07:03:25;;;;;;;17.38;10.20;;;;;;;-145.01;100.00;64805.59;5086227;28;20037;-54
2022/09/24 07:05:50;;;;;;;19.73;10.70;;;;;;;-145.01;100.00;64805.59;5053268;28;20131;-54
2022/09/24 07:08:16;;;;;;;24.13;9.98;;;;;;;-145.01;100.00;64805.59;5049803;28;20037;-55
2022/09/24 07:10:44;;;;;;;22.23;10.40;;;;;;;-145.01;100.00;64805.59;5053591;28;20020;-54
2022/09/24 07:13:13;;;;;;;19.48;9.30;;;;;;;-145.01;100.00;64805.59;5049742;28;20116;-55
2022/09/24 07:15:39;;;;;;;17.73;9.38;;;;;;;-145.01;100.00;64805.59;5059537;28;20021;-55
2022/09/24 07:18:04;;;;;;;16.85;9.38;;;;;;;-145.01;100.00;64805.59;5057614;28;20017;-55
2022/09/24 07:20:32;;;;;;;19.05;9.38;;;;;;;-145.01;100.00;64805.59;5053026;28;20032;-54
2022/09/24 07:22:57;;;;;;;21.75;9.75;;;;;;;-145.01;100.00;64805.59;5059332;28;20028;-53
2022/09/24 07:25:23;;;;;;;18.90;8.63;;;;;;;-145.01;100.00;64805.59;5052821;28;20043;-53
2022/09/24 07:27:48;;;;;;;13.88;8.20;;;;;;;-145.01;100.00;64805.59;5035304;28;21466;-54
2022/09/24 07:30:13;;;;;;;14.57;8.05;;;;;;;-145.01;100.00;64805.59;5051037;28;20792;-53
2022/09/24 07:32:39;;;;;;;14.20;8.00;;;;;;;-145.01;100.00;64805.59;5052893;28;20021;-54
2022/09/24 07:35:05;;;;;;;12.10;7.55;;;;;;;-145.01;100.00;64805.59;5084789;28;20122;-57
2022/09/24 07:37:33;;;;;;;13.40;7.50;;;;;;;-145.01;100.00;64805.59;5055611;28;20476;-57
2022/09/24 07:39:59;;;;;;;14.55;7.50;;;;;;;-145.01;100.00;64805.59;5059716;28;20119;-55
2022/09/24 07:42:24;;;;;;;10.93;6.95;;;;;;;-145.01;100.00;64805.59;5060787;28;20467;-55
2022/09/24 07:44:50;;;;;;;11.77;6.88;;;;;;;-145.01;100.00;64805.59;5057840;28;20029;-54
2022/09/24 07:47:15;;;;;;;12.70;7.18;;;;;;;-145.01;100.00;64805.59;5050928;28;20029;-55
2022/09/24 07:49:41;;;;;;;10.98;6.82;;;;;;;-145.01;100.00;64805.59;5052628;28;20106;-54
2022/09/24 07:52:06;;;;;;;11.85;6.70;;;;;;;-145.01;100.00;64805.59;5052614;28;20133;-55
2022/09/24 07:54:32;;;;;;;12.40;6.18;;;;;;;-145.01;100.00;64805.59;5056408;28;20033;-54
2022/09/24 07:56:57;;;;;;;13.27;6.65;;;;;;;-145.01;100.00;64805.59;5060032;28;20033;-54
2022/09/24 07:59:24;;;;;;;11.13;6.47;;;;;;;-145.01;100.00;64805.59;5057774;28;20029;-55
2022/09/24 08:01:50;;;;;;;9.75;6.32;;;;;;;-145.01;100.00;64805.59;5061357;28;20024;-54
2022/09/24 08:04:17;;;;;;;11.90;5.47;;;;;;;-145.01;100.00;64805.59;5057792;28;20036;-54
2022/09/24 08:06:42;;;;;;;9.77;5.47;;;;;;;-145.01;100.00;64805.59;5052222;28;20413;-54
2022/09/24 08:09:07;;;;;;;14.23;5.75;;;;;;;-145.01;100.00;64805.59;5058280;28;20055;-54
2022/09/24 08:11:33;;;;;;;14.70;5.93;;;;;;;-145.01;100.00;64805.59;5052637;28;20091;-54
2022/09/24 08:13:59;;;;;;;11.80;6.40;;;;;;;-145.01;100.00;64805.59;5059654;28;20025;-54
2022/09/24 08:16:25;;;;;;;8.77;5.47;;;;;;;-145.01;100.00;64805.59;5062554;28;20020;-54
2022/09/24 08:18:51;;;;;;;11.90;5.57;;;;;;;-145.01;100.00;64805.59;5051638;28;20028;-54
2022/09/24 08:21:17;;;;;;;7.95;5.07;;;;;;;-145.01;100.00;64805.59;5050422;28;20021;-53
2022/09/24 08:23:42;;;;;;;10.65;5.40;;;;;;;-145.01;100.00;64805.59;5051601;28;20394;-54
2022/09/24 08:26:11;;;;;;;10.70;5.60;;;;;;;-145.01;100.00;64805.59;5057261;28;20051;-54
2022/09/24 08:28:36;;;;;;;15.73;5.70;;;;;;;-145.01;100.00;64805.59;5084133;28;20040;-55
2022/09/24 08:31:03;;;;;;;10.98;6.22;;;;;;;-145.01;100.00;64805.59;5057259;28;20017;-54
2022/09/24 08:33:30;;;;;;;11.25;6.03;;;;;;;-145.01;100.00;64805.59;5056167;28;20041;-55
2022/09/24 08:35:58;;;;;;;11.07;5.72;;;;;;;-145.01;100.00;64805.59;5051853;28;20027;-54
2022/09/24 08:38:23;;;;;;;12.70;6.13;;;;;;;-145.01;100.00;64805.59;5053221;28;20044;-55
2022/09/24 08:40:53;;;;;;;7.65;5.60;;;;;;;-145.01;100.00;64805.59;5034254;28;20064;-54
2022/09/24 08:43:42;;;;;;;18.83;6.65;;;;;;;-145.01;100.00;64805.59;5051184;28;20352;-54
2022/09/24 08:49:24;;;;;;;10.35;6.80;;;;;;;-145.01;100.00;64805.59;5058317;28;20085;-54
2022/09/24 08:52:14;;;;;;;14.35;6.60;;;;;;;-145.01;100.00;64805.59;5051999;28;20025;-53
2022/09/24 08:54:39;;;;;;;11.93;6.85;;;;;;;-145.01;100.00;64805.59;5051579;28;20040;-55
2022/09/24 08:57:12;;;;;;;12.85;6.38;;;;;;;-145.01;100.00;64805.59;5055111;28;20024;-54
2022/09/24 08:59:42;;;;;;;11.00;6.97;;;;;;;-145.01;100.00;64805.59;5056405;28;20029;-53
2022/09/24 09:02:40;;;;;;;15.87;7.20;;;;;;;-145.01;100.00;64805.59;5051306;28;20112;-54
2022/09/24 09:05:14;;;;;;;9.98;6.60;;;;;;;-145.01;100.00;64805.59;5047770;28;20039;-54
2022/09/24 09:07:44;;;;;;;9.23;6.47;;;;;;;-145.01;100.00;64805.59;5056814;28;20032;-55
2022/09/24 09:10:16;;;;;;;;;;;;;;;-145.01;100.00;64805.59;5053770;28;20033;-54
2022/09/24 09:12:45;;;;;;;18.33;9.13;;;;;;;-145.01;100.00;64805.59;5083301;28;19970;-54
2022/09/24 09:15:15;;;;;;;13.20;7.72;;;;;;;-145.01;100.00;64805.59;5032180;28;20082;-54
2022/09/24 09:17:46;;;;;;;13.73;7.78;;;;;;;-145.01;100.00;64805.59;5051072;28;20091;-54
2022/09/24 09:20:28;;;;;;;16.85;8.43;;;;;;;-145.01;100.00;64805.59;5055761;28;20124;-54
2022/09/24 09:22:53;;;;;;;16.92;8.18;;;;;;;-145.01;100.00;64805.59;5050773;28;20056;-55
2022/09/24 09:25:22;;;;;;;13.10;7.40;;;;;;;-145.01;100.00;64805.59;5049115;28;20503;-53
2022/09/24 09:27:50;;;;;;;16.95;8.75;;;;;;;-145.01;100.00;64805.59;5059105;28;20584;-55
2022/09/24 09:30:16;;;;;;;11.75;7.18;;;;;;;-145.01;100.00;64805.59;5055102;28;20041;-55
2022/09/24 09:33:03;;;;;;;16.20;8.15;;;;;;;-145.01;100.00;64805.59;5055402;28;20363;-54
2022/09/24 09:35:56;;;;;;;14.77;7.82;;;;;;;-145.01;100.00;64805.59;5054860;28;20691;-54
2022/09/24 09:38:26;;;;;;;11.98;8.25;;;;;;;-145.01;100.00;64805.59;5019098;28;20086;-55
2022/09/24 09:40:58;;;;;;;17.48;8.38;;;;;;;-145.01;100.00;64805.59;5037037;28;20033;-54
2022/09/24 09:43:25;;;;;;;16.88;8.77;;;;;;;-145.01;100.00;64805.59;5055481;28;20033;-54
2022/09/24 09:46:14;;;;;;;15.68;8.88;;;;;;;-145.01;100.00;64805.59;5034109;28;20074;-54
2022/09/24 09:48:51;;;;;;;12.15;8.73;;;;;;;-145.01;100.00;64805.59;5059776;28;20471;-54
2022/09/24 09:51:20;;;;;;;15.63;8.70;;;;;;;-145.01;100.00;64805.59;5056554;28;20028;-53
2022/09/24 09:54:12;;;;;;;17.38;8.50;;;;;;;-145.01;100.00;64805.59;5054310;28;20032;-53
2022/09/24 09:56:42;;;;;;;18.70;8.55;;;;;;;-145.01;100.00;64805.59;5047693;28;20044;-54
2022/09/24 09:59:11;;;;;;;15.60;8.05;;;;;;;-145.01;100.00;64805.59;5054820;28;20107;-53
2022/09/24 10:01:39;;;;;;;14.00;8.50;;;;;;;-145.01;100.00;64805.59;5049460;28;20040;-54
2022/09/24 10:04:05;;;;;;;21.88;9.18;;;;;;;-145.01;100.00;64805.59;5038712;28;20102;-54
2022/09/24 10:06:34;;;;;;;16.92;8.25;;;;;;;-145.01;100.00;64805.59;5066463;28;20348;-52
2022/09/24 10:09:20;;;;;;;13.70;8.32;;;;;;;-145.01;100.00;64805.59;5053450;28;20036;-51
2022/09/24 10:11:46;;;;;;;16.30;8.82;;;;;;;-145.01;100.00;64805.59;5048726;28;20025;-53
2022/09/24 10:14:13;;;;;;;12.88;9.25;;;;;;;-145.01;100.00;64805.59;5050411;28;20359;-52
2022/09/24 10:16:41;;;;;;;15.23;9.00;;;;;;;-145.01;100.00;64805.59;5049536;28;20033;-53
2022/09/24 10:19:23;;;;;;;15.48;10.07;;;;;;;-145.01;100.00;64805.59;5033901;28;20033;-53
2022/09/24 10:21:49;;;;;;;14.40;9.52;;;;;;;-145.01;100.00;64805.59;5051473;28;20617;-52
2022/09/24 10:24:19;;;;;;;14.38;9.10;;;;;;;-145.01;100.00;64805.59;5048462;28;20033;-52
2022/09/24 10:26:44;;;;;;;17.60;9.05;;;;;;;-145.01;100.00;64805.59;5052768;28;20052;-54
2022/09/24 10:32:16;;;;;;;12.57;8.82;;;;;;;-145.01;100.00;64805.59;5054294;28;20687;-54
2022/09/24 10:34:41;;;;;;;15.75;8.45;;;;;;;-145.01;100.00;64805.59;5053460;28;20104;-53
2022/09/24 10:37:14;;;;;;;13.55;9.80;;;;;;;-145.01;100.00;64805.59;5058167;28;20115;-54
2022/09/24 10:39:40;;;;;;;11.02;8.02;;;;;;;-145.01;100.00;64805.59;5050303;28;20495;-53
2022/09/24 10:42:06;;;;;;;16.05;8.20;;;;;;;-145.01;100.00;64805.59;5048000;28;20025;-54
2022/09/24 10:44:35;;;;;;;11.93;8.25;;;;;;;-145.01;100.00;64805.59;5054524;28;20434;-55
2022/09/24 10:47:03;;;;;;;17.58;9.32;;;;;;;-145.01;100.00;64805.59;5084839;28;20038;-53
2022/09/24 10:49:54;;;;;;;14.02;8.02;;;;;;;-145.01;100.00;64805.59;5050245;28;20029;-53
2022/09/24 10:52:28;;;;;;;14.20;8.63;;;;;;;-145.01;100.00;64805.59;5086526;28;20234;-53
2022/09/24 10:54:59;;;;;;;11.88;8.73;;;;;;;-145.01;100.00;64805.59;5055148;28;20044;-53
2022/09/24 10:57:38;;;;;;;13.93;8.77;;;;;;;-145.01;100.00;64805.59;5054256;28;20055;-52
2022/09/24 11:00:14;;;;;;;16.08;8.82;;;;;;;-145.01;100.00;64805.59;5049756;28;20032;-54
2022/09/24 11:02:58;;;;;;;16.02;7.75;;;;;;;-145.01;100.00;64805.59;5052449;28;20111;-54
2022/09/24 11:05:35;;;;;;;20.15;8.38;;;;;;;-145.01;100.00;64805.59;5048658;28;20037;-53
2022/09/24 11:08:08;;;;;;;13.80;8.35;;;;;;;-145.01;100.00;64805.59;5032480;28;20032;-54
2022/09/24 11:10:40;;;;;;;18.85;8.95;;;;;;;-145.01;100.00;64805.59;5055478;28;20020;-54
2022/09/24 11:13:11;;;;;;;19.52;8.57;;;;;;;-145.01;100.00;64805.59;5056750;28;20402;-54
2022/09/24 11:15:57;;;;;;;17.85;10.07;;;;;;;-145.01;100.00;64805.59;5052075;28;20017;-54
2022/09/24 11:18:28;;;;;;;13.68;8.88;;;;;;;-145.01;100.00;64805.59;5052486;28;20498;-54
2022/09/24 11:21:12;;;;;;;14.90;9.05;;;;;;;-145.01;100.00;64805.59;5049668;28;20037;-53